sensor_id;sensor_type;location;lat;lon;timestamp;pressure;altitude;pressure_sealevel;temperature;humidity
5298;BME280;14738;42.668;23.250;2024-03-08T00:00:23;48553.09;;;-141.90;100.00
5298;BME280;14738;42.668;23.250;2024-03-08T00:02:49;48565.00;;;-141.90;100.00
5298;BME280;14738;42.668;23.250;2024-03-08T00:05:17;48557.06;;;-141.90;100.00
5298;BME280;14738;42.668;23.250;2024-03-08T00:07:43;48543.16;;;-141.90;100.00
5298;BME280;14738;42.668;23.250;2024-03-08T00:10:11;48533.25;;;-141.90;100.00
5298;BME280;14738;42.668;23.250;2024-03-08T00:12:44;48485.59;;;-141.90;100.00
5298;BME280;14738;42.668;23.250;2024-03-08T00:15:10;48549.13;;;-141.90;100.00
5298;BME280;14738;42.668;23.250;2024-03-08T00:17:39;48545.16;;;-141.90;100.00
5298;BME280;14738;42.668;23.250;2024-03-08T00:20:06;48537.22;;;-141.90;100.00
5298;BME280;14738;42.668;23.250;2024-03-08T00:22:34;48519.34;;;-141.90;100.00
5298;BME280;14738;42.668;23.250;2024-03-08T00:25:01;48529.28;;;-141.90;100.00
5298;BME280;14738;42.668;23.250;2024-03-08T00:27:27;48513.38;;;-141.90;100.00
5298;BME280;14738;42.668;23.250;2024-03-08T00:29:52;48553.09;;;-141.90;100.00
5298;BME280;14738;42.668;23.250;2024-03-08T00:32:17;48545.16;;;-141.90;100.00
5298;BME280;14738;42.668;23.250;2024-03-08T00:34:43;48517.34;;;-141.90;100.00
5298;BME280;14738;42.668;23.250;2024-03-08T00:37:08;48547.13;;;-141.90;100.00
5298;BME280;14738;42.668;23.250;2024-03-08T00:39:34;48525.31;;;-141.90;100.00
5298;BME280;14738;42.668;23.250;2024-03-08T00:41:59;48531.25;;;-141.90;100.00
5298;BME280;14738;42.668;23.250;2024-03-08T00:44:25;48515.38;;;-141.90;100.00
5298;BME280;14738;42.668;23.250;2024-03-08T00:46:50;48523.31;;;-141.90;100.00
5298;BME280;14738;42.668;23.250;2024-03-08T00:49:16;48531.25;;;-141.90;100.00
5298;BME280;14738;42.668;23.250;2024-03-08T00:51:42;48521.34;;;-141.90;100.00
5298;BME280;14738;42.668;23.250;2024-03-08T00:54:08;48549.13;;;-141.90;100.00
5298;BME280;14738;42.668;23.250;2024-03-08T00:56:34;48531.25;;;-141.90;100.00
5298;BME280;14738;42.668;23.250;2024-03-08T00:59:01;48553.09;;;-141.90;100.00
5298;BME280;14738;42.668;23.250;2024-03-08T01:01:27;48541.19;;;-141.90;100.00
5298;BME280;14738;42.668;23.250;2024-03-08T01:03:53;48568.97;;;-141.90;100.00
5298;BME280;14738;42.668;23.250;2024-03-08T01:06:18;48553.09;;;-141.90;100.00
5298;BME280;14738;42.668;23.250;2024-03-08T01:08:44;48549.13;;;-141.90;100.00
5298;BME280;14738;42.668;23.250;2024-03-08T01:11:10;48541.19;;;-141.90;100.00
5298;BME280;14738;42.668;23.250;2024-03-08T01:13:36;48549.13;;;-141.90;100.00
5298;BME280;14738;42.668;23.250;2024-03-08T01:16:01;48563.03;;;-141.90;100.00
5298;BME280;14738;42.668;23.250;2024-03-08T01:18:29;48545.16;;;-141.90;100.00
5298;BME280;14738;42.668;23.250;2024-03-08T01:20:54;48525.31;;;-141.90;100.00
5298;BME280;14738;42.668;23.250;2024-03-08T01:23:19;48537.22;;;-141.90;100.00
5298;BME280;14738;42.668;23.250;2024-03-08T01:25:45;48525.31;;;-141.90;100.00
5298;BME280;14738;42.668;23.250;2024-03-08T01:28:10;48576.91;;;-141.90;100.00
5298;BME280;14738;42.668;23.250;2024-03-08T01:30:36;48535.22;;;-141.90;100.00
5298;BME280;14738;42.668;23.250;2024-03-08T01:33:03;48519.34;;;-141.90;100.00
5298;BME280;14738;42.668;23.250;2024-03-08T01:35:28;48531.25;;;-141.90;100.00
5298;BME280;14738;42.668;23.250;2024-03-08T01:37:54;48545.16;;;-141.90;100.00
5298;BME280;14738;42.668;23.250;2024-03-08T01:40:19;48567.00;;;-141.90;100.00
5298;BME280;14738;42.668;23.250;2024-03-08T01:42:45;48549.13;;;-141.90;100.00
5298;BME280;14738;42.668;23.250;2024-03-08T01:45:10;48555.09;;;-141.90;100.00
5298;BME280;14738;42.668;23.250;2024-03-08T01:47:36;48549.13;;;-141.90;100.00
5298;BME280;14738;42.668;23.250;2024-03-08T01:50:02;48553.09;;;-141.90;100.00
5298;BME280;14738;42.668;23.250;2024-03-08T01:52:30;48553.09;;;-141.90;100.00
5298;BME280;14738;42.668;23.250;2024-03-08T01:54:59;48584.84;;;-141.90;100.00
5298;BME280;14738;42.668;23.250;2024-03-08T01:57:27;48545.16;;;-141.90;100.00
5298;BME280;14738;42.668;23.250;2024-03-08T01:59:52;48549.13;;;-141.90;100.00
5298;BME280;14738;42.668;23.250;2024-03-08T02:02:20;48539.19;;;-141.90;100.00
5298;BME280;14738;42.668;23.250;2024-03-08T02:04:46;48563.03;;;-141.90;100.00
5298;BME280;14738;42.668;23.250;2024-03-08T02:07:12;48523.31;;;-141.90;100.00
5298;BME280;14738;42.668;23.250;2024-03-08T02:09:38;48545.16;;;-141.90;100.00
5298;BME280;14738;42.668;23.250;2024-03-08T02:12:05;48565.00;;;-141.90;100.00
5298;BME280;14738;42.668;23.250;2024-03-08T02:14:30;48531.25;;;-141.90;100.00
5298;BME280;14738;42.668;23.250;2024-03-08T02:17:00;48555.09;;;-141.90;100.00
5298;BME280;14738;42.668;23.250;2024-03-08T02:19:25;48545.16;;;-141.90;100.00
5298;BME280;14738;42.668;23.250;2024-03-08T02:21:51;48563.03;;;-141.90;100.00
5298;BME280;14738;42.668;23.250;2024-03-08T02:24:16;48533.25;;;-141.90;100.00
5298;BME280;14738;42.668;23.250;2024-03-08T02:26:41;48561.03;;;-141.90;100.00
5298;BME280;14738;42.668;23.250;2024-03-08T02:29:08;48527.28;;;-141.90;100.00
5298;BME280;14738;42.668;23.250;2024-03-08T02:31:34;48537.22;;;-141.90;100.00
5298;BME280;14738;42.668;23.250;2024-03-08T02:33:59;48557.06;;;-141.90;100.00
5298;BME280;14738;42.668;23.250;2024-03-08T02:36:24;48543.16;;;-141.90;100.00
5298;BME280;14738;42.668;23.250;2024-03-08T02:38:50;48541.19;;;-141.90;100.00
5298;BME280;14738;42.668;23.250;2024-03-08T02:41:15;48561.03;;;-141.90;100.00
5298;BME280;14738;42.668;23.250;2024-03-08T02:43:41;48539.19;;;-141.90;100.00
5298;BME280;14738;42.668;23.250;2024-03-08T02:46:06;48561.03;;;-141.90;100.00
5298;BME280;14738;42.668;23.250;2024-03-08T02:48:31;48523.31;;;-141.90;100.00
5298;BME280;14738;42.668;23.250;2024-03-08T02:50:57;48568.97;;;-141.90;100.00
5298;BME280;14738;42.668;23.250;2024-03-08T02:53:22;48565.00;;;-141.90;100.00
5298;BME280;14738;42.668;23.250;2024-03-08T02:55:49;48519.34;;;-141.90;100.00
5298;BME280;14738;42.668;23.250;2024-03-08T02:58:15;48549.13;;;-141.90;100.00
5298;BME280;14738;42.668;23.250;2024-03-08T03:00:40;48549.13;;;-141.90;100.00
5298;BME280;14738;42.668;23.250;2024-03-08T03:03:06;48523.31;;;-141.90;100.00
5298;BME280;14738;42.668;23.250;2024-03-08T03:05:32;48568.97;;;-141.90;100.00
5298;BME280;14738;42.668;23.250;2024-03-08T03:07:59;48523.31;;;-141.90;100.00
5298;BME280;14738;42.668;23.250;2024-03-08T03:10:24;48570.97;;;-141.90;100.00
5298;BME280;14738;42.668;23.250;2024-03-08T03:12:50;48551.09;;;-141.90;100.00
5298;BME280;14738;42.668;23.250;2024-03-08T03:15:16;48565.00;;;-141.90;100.00
5298;BME280;14738;42.668;23.250;2024-03-08T03:17:48;48551.09;;;-141.90;100.00
5298;BME280;14738;42.668;23.250;2024-03-08T03:20:16;48568.97;;;-141.90;100.00
5298;BME280;14738;42.668;23.250;2024-03-08T03:22:48;48547.13;;;-141.90;100.00
5298;BME280;14738;42.668;23.250;2024-03-08T03:25:20;48557.06;;;-141.90;100.00
5298;BME280;14738;42.668;23.250;2024-03-08T03:27:54;48535.22;;;-141.90;100.00
5298;BME280;14738;42.668;23.250;2024-03-08T03:30:25;48557.06;;;-141.90;100.00
5298;BME280;14738;42.668;23.250;2024-03-08T03:32:51;48565.00;;;-141.90;100.00
5298;BME280;14738;42.668;23.250;2024-03-08T03:35:18;48541.19;;;-141.90;100.00
5298;BME280;14738;42.668;23.250;2024-03-08T03:37:44;48549.13;;;-141.90;100.00
5298;BME280;14738;42.668;23.250;2024-03-08T03:40:47;48537.22;;;-141.90;100.00
5298;BME280;14738;42.668;23.250;2024-03-08T03:43:13;48557.06;;;-141.90;100.00
5298;BME280;14738;42.668;23.250;2024-03-08T03:45:39;48537.22;;;-141.90;100.00
5298;BME280;14738;42.668;23.250;2024-03-08T03:48:07;48543.16;;;-141.90;100.00
5298;BME280;14738;42.668;23.250;2024-03-08T03:50:34;48537.22;;;-141.90;100.00
5298;BME280;14738;42.668;23.250;2024-03-08T03:53:00;48565.00;;;-141.90;100.00
5298;BME280;14738;42.668;23.250;2024-03-08T03:55:25;48533.25;;;-141.90;100.00
5298;BME280;14738;42.668;23.250;2024-03-08T03:57:52;48559.06;;;-141.90;100.00
5298;BME280;14738;42.668;23.250;2024-03-08T04:00:18;48551.09;;;-141.90;100.00
5298;BME280;14738;42.668;23.250;2024-03-08T04:02:43;48565.00;;;-141.90;100.00
5298;BME280;14738;42.668;23.250;2024-03-08T04:05:10;48539.19;;;-141.90;100.00
5298;BME280;14738;42.668;23.250;2024-03-08T04:07:36;48509.41;;;-141.90;100.00
5298;BME280;14738;42.668;23.250;2024-03-08T04:10:02;48549.13;;;-141.90;100.00
5298;BME280;14738;42.668;23.250;2024-03-08T04:12:28;48553.09;;;-141.90;100.00
5298;BME280;14738;42.668;23.250;2024-03-08T04:14:55;48543.16;;;-141.90;100.00
5298;BME280;14738;42.668;23.250;2024-03-08T04:17:21;48529.28;;;-141.90;100.00
5298;BME280;14738;42.668;23.250;2024-03-08T04:19:46;48557.06;;;-141.90;100.00
5298;BME280;14738;42.668;23.250;2024-03-08T04:22:13;48545.16;;;-141.90;100.00
5298;BME280;14738;42.668;23.250;2024-03-08T04:24:39;48533.25;;;-141.90;100.00
5298;BME280;14738;42.668;23.250;2024-03-08T04:27:05;48549.13;;;-141.90;100.00
5298;BME280;14738;42.668;23.250;2024-03-08T04:29:32;48565.00;;;-141.90;100.00
5298;BME280;14738;42.668;23.250;2024-03-08T04:31:59;48513.38;;;-141.90;100.00
5298;BME280;14738;42.668;23.250;2024-03-08T04:34:25;48545.16;;;-141.90;100.00
5298;BME280;14738;42.668;23.250;2024-03-08T04:36:50;48553.09;;;-141.90;100.00
5298;BME280;14738;42.668;23.250;2024-03-08T04:39:15;48549.13;;;-141.90;100.00
5298;BME280;14738;42.668;23.250;2024-03-08T04:41:42;48539.19;;;-141.90;100.00
5298;BME280;14738;42.668;23.250;2024-03-08T04:44:09;48525.31;;;-141.90;100.00
5298;BME280;14738;42.668;23.250;2024-03-08T04:46:35;48545.16;;;-141.90;100.00
5298;BME280;14738;42.668;23.250;2024-03-08T04:49:01;48545.16;;;-141.90;100.00
5298;BME280;14738;42.668;23.250;2024-03-08T04:51:26;48521.34;;;-141.90;100.00
5298;BME280;14738;42.668;23.250;2024-03-08T04:53:52;48547.13;;;-141.90;100.00
5298;BME280;14738;42.668;23.250;2024-03-08T04:56:17;48525.31;;;-141.90;100.00
5298;BME280;14738;42.668;23.250;2024-03-08T04:58:44;48529.28;;;-141.90;100.00
5298;BME280;14738;42.668;23.250;2024-03-08T05:01:12;48549.13;;;-141.90;100.00
5298;BME280;14738;42.668;23.250;2024-03-08T05:03:37;48537.22;;;-141.90;100.00
5298;BME280;14738;42.668;23.250;2024-03-08T05:06:04;48549.13;;;-141.90;100.00
5298;BME280;14738;42.668;23.250;2024-03-08T05:08:29;48553.09;;;-141.90;100.00
5298;BME280;14738;42.668;23.250;2024-03-08T05:10:55;48539.19;;;-141.90;100.00
5298;BME280;14738;42.668;23.250;2024-03-08T05:13:21;48531.25;;;-141.90;100.00
5298;BME280;14738;42.668;23.250;2024-03-08T05:15:50;48553.09;;;-141.90;100.00
5298;BME280;14738;42.668;23.250;2024-03-08T05:18:18;48555.09;;;-141.90;100.00
5298;BME280;14738;42.668;23.250;2024-03-08T05:20:43;48549.13;;;-141.90;100.00
5298;BME280;14738;42.668;23.250;2024-03-08T05:23:09;48533.25;;;-141.90;100.00
5298;BME280;14738;42.668;23.250;2024-03-08T05:25:34;48553.09;;;-141.90;100.00
5298;BME280;14738;42.668;23.250;2024-03-08T05:28:00;48561.03;;;-141.90;100.00
5298;BME280;14738;42.668;23.250;2024-03-08T05:30:25;48557.06;;;-141.90;100.00
5298;BME280;14738;42.668;23.250;2024-03-08T05:32:50;48567.00;;;-141.90;100.00
5298;BME280;14738;42.668;23.250;2024-03-08T05:35:16;48513.38;;;-141.90;100.00
5298;BME280;14738;42.668;23.250;2024-03-08T05:37:42;48533.25;;;-141.90;100.00
5298;BME280;14738;42.668;23.250;2024-03-08T05:40:08;48549.13;;;-141.90;100.00
5298;BME280;14738;42.668;23.250;2024-03-08T05:42:38;48537.22;;;-141.90;100.00
5298;BME280;14738;42.668;23.250;2024-03-08T05:45:04;48549.13;;;-141.90;100.00
5298;BME280;14738;42.668;23.250;2024-03-08T05:47:31;48513.38;;;-141.90;100.00
5298;BME280;14738;42.668;23.250;2024-03-08T05:49:58;48533.25;;;-141.90;100.00
5298;BME280;14738;42.668;23.250;2024-03-08T05:52:23;48547.13;;;-141.90;100.00
5298;BME280;14738;42.668;23.250;2024-03-08T05:54:49;48529.28;;;-141.90;100.00
5298;BME280;14738;42.668;23.250;2024-03-08T05:57:14;48545.16;;;-141.90;100.00
5298;BME280;14738;42.668;23.250;2024-03-08T05:59:40;48559.06;;;-141.90;100.00
5298;BME280;14738;42.668;23.250;2024-03-08T06:02:05;48529.28;;;-141.90;100.00
5298;BME280;14738;42.668;23.250;2024-03-08T06:04:30;48541.19;;;-141.90;100.00
5298;BME280;14738;42.668;23.250;2024-03-08T06:06:56;48574.94;;;-141.90;100.00
5298;BME280;14738;42.668;23.250;2024-03-08T06:09:23;48557.06;;;-141.90;100.00
5298;BME280;14738;42.668;23.250;2024-03-08T06:11:50;48557.06;;;-141.90;100.00
5298;BME280;14738;42.668;23.250;2024-03-08T06:14:15;48545.16;;;-141.90;100.00
5298;BME280;14738;42.668;23.250;2024-03-08T06:16:44;48533.25;;;-141.90;100.00
5298;BME280;14738;42.668;23.250;2024-03-08T06:19:10;48572.94;;;-141.90;100.00
5298;BME280;14738;42.668;23.250;2024-03-08T06:21:35;48529.28;;;-141.90;100.00
5298;BME280;14738;42.668;23.250;2024-03-08T06:24:01;48541.19;;;-141.90;100.00
5298;BME280;14738;42.668;23.250;2024-03-08T06:26:27;48557.06;;;-141.90;100.00
5298;BME280;14738;42.668;23.250;2024-03-08T06:28:55;48553.09;;;-141.90;100.00
5298;BME280;14738;42.668;23.250;2024-03-08T06:31:21;48551.09;;;-141.90;100.00
5298;BME280;14738;42.668;23.250;2024-03-08T06:33:46;48568.97;;;-141.90;100.00
5298;BME280;14738;42.668;23.250;2024-03-08T06:36:16;48541.19;;;-141.90;100.00
5298;BME280;14738;42.668;23.250;2024-03-08T06:38:45;48561.03;;;-141.90;100.00
5298;BME280;14738;42.668;23.250;2024-03-08T06:41:11;48555.09;;;-141.90;100.00
5298;BME280;14738;42.668;23.250;2024-03-08T06:43:46;48525.31;;;-141.90;100.00
5298;BME280;14738;42.668;23.250;2024-03-08T06:46:12;48545.16;;;-141.90;100.00
5298;BME280;14738;42.668;23.250;2024-03-08T06:48:40;48519.34;;;-141.90;100.00
5298;BME280;14738;42.668;23.250;2024-03-08T06:51:06;48553.09;;;-141.90;100.00
5298;BME280;14738;42.668;23.250;2024-03-08T06:53:32;48555.09;;;-141.90;100.00
5298;BME280;14738;42.668;23.250;2024-03-08T06:55:58;48527.28;;;-141.90;100.00
5298;BME280;14738;42.668;23.250;2024-03-08T06:58:24;48541.19;;;-141.90;100.00
5298;BME280;14738;42.668;23.250;2024-03-08T07:00:49;48578.91;;;-141.90;100.00
5298;BME280;14738;42.668;23.250;2024-03-08T07:03:18;48557.06;;;-141.90;100.00
5298;BME280;14738;42.668;23.250;2024-03-08T07:05:43;48497.50;;;-141.90;100.00
5298;BME280;14738;42.668;23.250;2024-03-08T07:08:09;48525.31;;;-141.90;100.00
5298;BME280;14738;42.668;23.250;2024-03-08T07:10:34;48527.28;;;-141.90;100.00
5298;BME280;14738;42.668;23.250;2024-03-08T07:13:02;48533.25;;;-141.90;100.00
5298;BME280;14738;42.668;23.250;2024-03-08T07:15:27;48533.25;;;-141.90;100.00
5298;BME280;14738;42.668;23.250;2024-03-08T07:17:54;48535.22;;;-141.90;100.00
5298;BME280;14738;42.668;23.250;2024-03-08T07:20:19;48529.28;;;-141.90;100.00
5298;BME280;14738;42.668;23.250;2024-03-08T07:22:48;48557.06;;;-141.90;100.00
5298;BME280;14738;42.668;23.250;2024-03-08T07:25:16;48572.94;;;-141.90;100.00
5298;BME280;14738;42.668;23.250;2024-03-08T07:27:49;48533.25;;;-141.90;100.00
5298;BME280;14738;42.668;23.250;2024-03-08T07:30:15;48537.22;;;-141.90;100.00
5298;BME280;14738;42.668;23.250;2024-03-08T07:33:19;48541.19;;;-141.90;100.00
5298;BME280;14738;42.668;23.250;2024-03-08T07:35:44;48553.09;;;-141.90;100.00
5298;BME280;14738;42.668;23.250;2024-03-08T07:38:12;48559.06;;;-141.90;100.00
5298;BME280;14738;42.668;23.250;2024-03-08T07:40:40;48513.38;;;-141.90;100.00
5298;BME280;14738;42.668;23.250;2024-03-08T07:43:10;48513.38;;;-141.90;100.00
5298;BME280;14738;42.668;23.250;2024-03-08T07:45:37;48513.38;;;-141.90;100.00
5298;BME280;14738;42.668;23.250;2024-03-08T07:48:02;48509.41;;;-141.90;100.00
5298;BME280;14738;42.668;23.250;2024-03-08T07:50:28;48525.31;;;-141.90;100.00
5298;BME280;14738;42.668;23.250;2024-03-08T07:52:54;48541.19;;;-141.90;100.00
5298;BME280;14738;42.668;23.250;2024-03-08T07:55:20;48513.38;;;-141.90;100.00
5298;BME280;14738;42.668;23.250;2024-03-08T07:57:45;48549.13;;;-141.90;100.00
5298;BME280;14738;42.668;23.250;2024-03-08T08:00:13;48537.22;;;-141.90;100.00
5298;BME280;14738;42.668;23.250;2024-03-08T08:02:43;48537.22;;;-141.90;100.00
5298;BME280;14738;42.668;23.250;2024-03-08T08:05:08;48545.16;;;-141.90;100.00
5298;BME280;14738;42.668;23.250;2024-03-08T08:07:35;48531.25;;;-141.90;100.00
5298;BME280;14738;42.668;23.250;2024-03-08T08:10:01;48525.31;;;-141.90;100.00
5298;BME280;14738;42.668;23.250;2024-03-08T08:12:27;48555.09;;;-141.90;100.00
5298;BME280;14738;42.668;23.250;2024-03-08T08:14:54;48517.34;;;-141.90;100.00
5298;BME280;14738;42.668;23.250;2024-03-08T08:17:19;48521.34;;;-141.90;100.00
5298;BME280;14738;42.668;23.250;2024-03-08T08:19:45;48527.28;;;-141.90;100.00
5298;BME280;14738;42.668;23.250;2024-03-08T08:22:11;48541.19;;;-141.90;100.00
5298;BME280;14738;42.668;23.250;2024-03-08T08:24:36;48533.25;;;-141.90;100.00
5298;BME280;14738;42.668;23.250;2024-03-08T08:27:03;48525.31;;;-141.90;100.00
5298;BME280;14738;42.668;23.250;2024-03-08T08:29:28;48503.47;;;-141.90;100.00
5298;BME280;14738;42.668;23.250;2024-03-08T08:31:57;48529.28;;;-141.90;100.00
5298;BME280;14738;42.668;23.250;2024-03-08T08:34:24;48523.31;;;-141.90;100.00
5298;BME280;14738;42.668;23.250;2024-03-08T08:36:51;48517.34;;;-141.90;100.00
5298;BME280;14738;42.668;23.250;2024-03-08T08:39:17;48523.31;;;-141.90;100.00
5298;BME280;14738;42.668;23.250;2024-03-08T08:41:43;48513.38;;;-141.90;100.00
5298;BME280;14738;42.668;23.250;2024-03-08T08:44:08;48497.50;;;-141.90;100.00
5298;BME280;14738;42.668;23.250;2024-03-08T08:46:38;48471.69;;;-141.90;100.00
5298;BME280;14738;42.668;23.250;2024-03-08T08:49:04;48509.41;;;-141.90;100.00
5298;BME280;14738;42.668;23.250;2024-03-08T08:51:30;48479.63;;;-141.90;100.00
5298;BME280;14738;42.668;23.250;2024-03-08T08:53:56;48499.50;;;-141.90;100.00
5298;BME280;14738;42.668;23.250;2024-03-08T08:56:21;48517.34;;;-141.90;100.00
5298;BME280;14738;42.668;23.250;2024-03-08T08:58:47;48525.31;;;-141.90;100.00
5298;BME280;14738;42.668;23.250;2024-03-08T09:01:14;48481.63;;;-141.90;100.00
5298;BME280;14738;42.668;23.250;2024-03-08T09:03:39;48527.28;;;-141.90;100.00
5298;BME280;14738;42.668;23.250;2024-03-08T09:06:09;48497.50;;;-141.90;100.00
5298;BME280;14738;42.668;23.250;2024-03-08T09:08:37;48465.75;;;-141.90;100.00
5298;BME280;14738;42.668;23.250;2024-03-08T09:11:03;48473.69;;;-141.90;100.00
5298;BME280;14738;42.668;23.250;2024-03-08T09:13:29;48539.19;;;-141.90;100.00
5298;BME280;14738;42.668;23.250;2024-03-08T09:15:54;48497.50;;;-141.90;100.00
5298;BME280;14738;42.668;23.250;2024-03-08T09:18:20;48493.53;;;-141.90;100.00
5298;BME280;14738;42.668;23.250;2024-03-08T09:20:45;48437.94;;;-141.90;100.00
5298;BME280;14738;42.668;23.250;2024-03-08T09:23:11;48489.56;;;-141.90;100.00
5298;BME280;14738;42.668;23.250;2024-03-08T09:25:36;48497.50;;;-141.90;100.00
5298;BME280;14738;42.668;23.250;2024-03-08T09:28:05;48477.66;;;-141.90;100.00
5298;BME280;14738;42.668;23.250;2024-03-08T09:30:31;48501.47;;;-141.90;100.00
5298;BME280;14738;42.668;23.250;2024-03-08T09:32:56;48473.69;;;-141.90;100.00
5298;BME280;14738;42.668;23.250;2024-03-08T09:35:22;48473.69;;;-141.90;47.01
5298;BME280;14738;42.668;23.250;2024-03-08T09:37:47;48491.56;;;-141.90;47.12
5298;BME280;14738;42.668;23.250;2024-03-08T09:40:16;48501.47;;;-141.90;45.84
5298;BME280;14738;42.668;23.250;2024-03-08T09:42:44;48497.50;;;-141.90;46.61
5298;BME280;14738;42.668;23.250;2024-03-08T09:45:11;48493.53;;;-141.90;46.47
5298;BME280;14738;42.668;23.250;2024-03-08T09:47:41;48483.59;;;-141.90;46.82
5298;BME280;14738;42.668;23.250;2024-03-08T09:50:08;48479.63;;;-141.90;46.50
5298;BME280;14738;42.668;23.250;2024-03-08T09:52:37;48509.41;;;-141.90;46.13
5298;BME280;14738;42.668;23.250;2024-03-08T09:55:05;48485.59;;;-141.90;47.62
5298;BME280;14738;42.668;23.250;2024-03-08T09:57:32;48499.50;;;-141.90;46.50
5298;BME280;14738;42.668;23.250;2024-03-08T09:59:58;48481.63;;;-141.90;45.28
5298;BME280;14738;42.668;23.250;2024-03-08T10:02:24;48461.78;;;-141.90;45.35
5298;BME280;14738;42.668;23.250;2024-03-08T10:04:51;48485.59;;;-141.90;44.04
5298;BME280;14738;42.668;23.250;2024-03-08T10:07:18;48491.56;;;-141.90;44.36
5298;BME280;14738;42.668;23.250;2024-03-08T10:09:44;48499.50;;;-141.90;44.63
5298;BME280;14738;42.668;23.250;2024-03-08T10:12:16;48463.75;;;-141.90;43.99
5298;BME280;14738;42.668;23.250;2024-03-08T10:14:42;48481.63;;;-141.90;43.92
5298;BME280;14738;42.668;23.250;2024-03-08T10:17:07;48463.75;;;-141.90;41.53
5298;BME280;14738;42.668;23.250;2024-03-08T10:19:33;48469.72;;;-141.90;40.86
5298;BME280;14738;42.668;23.250;2024-03-08T10:21:59;48475.66;;;-141.90;41.74
5298;BME280;14738;42.668;23.250;2024-03-08T10:24:25;48499.50;;;-141.90;41.05
5298;BME280;14738;42.668;23.250;2024-03-08T10:26:58;48461.78;;;-141.90;42.08
5298;BME280;14738;42.668;23.250;2024-03-08T10:29:23;48469.72;;;-141.90;42.53
5298;BME280;14738;42.668;23.250;2024-03-08T10:31:49;48469.72;;;-141.90;42.49
5298;BME280;14738;42.668;23.250;2024-03-08T10:34:16;48481.63;;;-141.90;42.24
5298;BME280;14738;42.668;23.250;2024-03-08T10:36:41;48491.56;;;-141.90;40.97
5298;BME280;14738;42.668;23.250;2024-03-08T10:39:17;48485.59;;;-141.90;42.46
5298;BME280;14738;42.668;23.250;2024-03-08T10:41:58;48483.59;;;-141.90;43.00
5298;BME280;14738;42.668;23.250;2024-03-08T10:47:02;48473.69;;;-141.90;40.74
5298;BME280;14738;42.668;23.250;2024-03-08T10:52:16;48465.75;;;-141.90;41.04
5298;BME280;14738;42.668;23.250;2024-03-08T10:54:44;48465.75;;;-141.90;41.79
5298;BME280;14738;42.668;23.250;2024-03-08T10:57:12;48471.69;;;-141.90;42.30
5298;BME280;14738;42.668;23.250;2024-03-08T10:59:38;48453.81;;;-141.90;42.08
5298;BME280;14738;42.668;23.250;2024-03-08T11:02:04;48453.81;;;-141.90;41.94
5298;BME280;14738;42.668;23.250;2024-03-08T11:04:31;48495.53;;;-141.90;41.51
5298;BME280;14738;42.668;23.250;2024-03-08T11:07:02;48479.63;;;-141.90;40.04
5298;BME280;14738;42.668;23.250;2024-03-08T11:09:36;48465.75;;;-141.90;39.95
5298;BME280;14738;42.668;23.250;2024-03-08T11:12:23;48485.59;;;-141.90;39.55
5298;BME280;14738;42.668;23.250;2024-03-08T11:14:55;48489.56;;;-141.90;40.73
5298;BME280;14738;42.668;23.250;2024-03-08T11:17:25;48473.69;;;-141.90;39.64
5298;BME280;14738;42.668;23.250;2024-03-08T11:19:55;48457.81;;;-141.90;39.77
5298;BME280;14738;42.668;23.250;2024-03-08T11:22:52;48485.59;;;-141.90;39.13
5298;BME280;14738;42.668;23.250;2024-03-08T11:25:39;48465.75;;;-141.90;39.37
5298;BME280;14738;42.668;23.250;2024-03-08T11:30:42;48465.75;;;-141.90;39.61
5298;BME280;14738;42.668;23.250;2024-03-08T11:33:11;48471.69;;;-141.90;40.05
5298;BME280;14738;42.668;23.250;2024-03-08T11:35:38;48455.81;;;-141.90;40.25
5298;BME280;14738;42.668;23.250;2024-03-08T11:38:04;48469.72;;;-141.90;40.66
5298;BME280;14738;42.668;23.250;2024-03-08T11:40:29;48437.94;;;-141.90;41.19
5298;BME280;14738;42.668;23.250;2024-03-08T11:42:55;48457.81;;;-141.90;41.24
5298;BME280;14738;42.668;23.250;2024-03-08T11:45:20;48435.97;;;-141.90;41.78
5298;BME280;14738;42.668;23.250;2024-03-08T11:47:50;48485.59;;;-141.90;42.31
5298;BME280;14738;42.668;23.250;2024-03-08T11:50:16;48445.88;;;-141.90;42.31
5298;BME280;14738;42.668;23.250;2024-03-08T11:52:42;48465.75;;;-141.90;41.85
5298;BME280;14738;42.668;23.250;2024-03-08T11:55:08;48469.72;;;-141.90;42.35
5298;BME280;14738;42.668;23.250;2024-03-08T11:57:34;48489.56;;;-141.90;42.55
5298;BME280;14738;42.668;23.250;2024-03-08T12:00:00;48463.75;;;-141.90;43.00
5298;BME280;14738;42.668;23.250;2024-03-08T12:02:32;48455.81;;;-141.90;42.75
5298;BME280;14738;42.668;23.250;2024-03-08T12:05:04;48477.66;;;-141.90;42.98
5298;BME280;14738;42.668;23.250;2024-03-08T12:07:31;48493.53;;;-141.90;42.11
5298;BME280;14738;42.668;23.250;2024-03-08T12:10:18;48477.66;;;-141.90;43.60
5298;BME280;14738;42.668;23.250;2024-03-08T12:12:52;48471.69;;;-141.90;42.88
5298;BME280;14738;42.668;23.250;2024-03-08T12:15:19;48469.72;;;-141.90;42.33
5298;BME280;14738;42.668;23.250;2024-03-08T12:17:48;48513.38;;;-141.90;42.42
5298;BME280;14738;42.668;23.250;2024-03-08T12:20:18;48481.63;;;-141.90;43.25
5298;BME280;14738;42.668;23.250;2024-03-08T12:22:47;48477.66;;;-141.90;42.80
5298;BME280;14738;42.668;23.250;2024-03-08T12:25:12;48469.72;;;-141.90;43.18
5298;BME280;14738;42.668;23.250;2024-03-08T12:27:39;48493.53;;;-141.90;43.59
5298;BME280;14738;42.668;23.250;2024-03-08T12:33:07;48489.56;;;-141.90;44.52
5298;BME280;14738;42.668;23.250;2024-03-08T12:35:35;48477.66;;;-141.90;42.77
5298;BME280;14738;42.668;23.250;2024-03-08T12:38:02;48453.81;;;-141.90;42.66
5298;BME280;14738;42.668;23.250;2024-03-08T12:40:31;48493.53;;;-141.90;42.70
5298;BME280;14738;42.668;23.250;2024-03-08T12:43:03;48501.47;;;-141.90;42.13